Grandeur Of The Seas — C6SE3 — position and weather

sailwx.info

Track history (hours):
 
Tides and Currents Weather Stations Pressure Air Temp Water Temp Dewpoint Dewpoint Depression Visibility Wind Speed Wind Dir Waves Ship Positions

Grandeur Of The Seas

Operator: Royal Caribbean Cruises Ltd

Last reported at 2016-May-29 06:33 UTC. Time now 2016-May-30 08:45 UTC.
Position N 42°40' W 070°10'.

Type: Passenger vessel. MMSI: 311315000.

Date/timePositionNaut miles runAvg speedWind from/ knotsBaromVisibWave heightAir tempDewpointWater temp
2016-May-29 06:33N 42°40' W 070°10'1414.4
2016-May-29 05:33N 42°27' W 070°18'1312.8
2016-May-29 04:34N 42°19' W 070°32'1414.4
2016-May-29 03:34N 42°23' W 070°50'9 8.7
2016-May-29 02:33N 42°21' W 071°02'0 0.0
2016-May-29 01:33N 42°21' W 071°02'0 0.0
2016-May-29 00:33N 42°21' W 071°02'0 0.0
2016-May-28 23:33N 42°21' W 071°02'0 0.0
2016-May-28 22:33N 42°21' W 071°02'0 0.0
2016-May-28 21:30N 42°21' W 071°02'0 0.0
2016-May-28 20:30N 42°21' W 071°02'0 0.0
2016-May-28 19:33N 42°21' W 071°02'0 0.0
2016-May-28 18:33N 42°21' W 071°02'0 0.0
2016-May-28 17:33N 42°21' W 071°02'0 0.0
2016-May-28 16:33N 42°21' W 071°02'0 0.0
2016-May-28 15:33N 42°21' W 071°02'0 0.0
2016-May-28 14:33N 42°21' W 071°02'0 0.3
2016-May-28 13:34N 42°21' W 071°01'9 8.5
2016-May-28 12:34N 42°24' W 070°50'1313.3
2016-May-28 11:33N 42°22' W 070°33'8012.2
2016-May-28 05:00N 41°24' W 069°18'40917.5 220 / 211019.810.8 12.511.612.4
2016-May-27 05:33N 36°57' W 075°58'3715.0
2016-May-27 03:04N 37°34' W 076°03'1317.9
2016-May-27 02:20N 37°45' W 076°11'1619.8
2016-May-27 01:33N 38°01' W 076°12'5317.7
2016-May-26 22:34N 38°53' W 076°24'1514.7
2016-May-26 21:33N 39°08' W 076°24'1110.8
2016-May-26 20:33N 39°15' W 076°34'2 0.3
2016-May-26 14:10N 39°16' W 076°36'0 0.0
2016-May-26 13:28N 39°16' W 076°36'0 0.0
2016-May-26 12:31N 39°16' W 076°36'0 0.0
2016-May-26 11:28N 39°16' W 076°36'1 1.0
2016-May-26 10:34N 39°15' W 076°35'9 8.5
2016-May-26 09:34N 39°10' W 076°26'1313.0
2016-May-26 08:33N 38°58' W 076°24'1918.6
2016-May-26 07:33N 38°39' W 076°25'1918.6
2016-May-26 06:33N 38°21' W 076°19'1919.0
2016-May-26 05:33N 38°03' W 076°13'4117.8
2016-May-26 03:15N 37°22' W 076°05'1917.6
2016-May-26 02:10N 37°03' W 076°05'1117.2
2016-May-26 01:33N 36°56' W 075°55'54621.4
2016-May-25 00:00N 33°00' W 065°54'67 1.6 220 / 91019.010.8 0.525.025.024.2
2016-May-23 05:00N 33°30' W 067°06'47120.5 200 / 201010.810.8 22.021.725.0
2016-May-22 06:00N 36°48' W 075°48'920.8 310 / 181009.510.8 15.514.719.0
2016-May-22 05:33N 36°55' W 075°56'12017.1
2016-May-21 22:33N 38°52' W 076°24'1515.0
2016-May-21 21:33N 39°07' W 076°24'1111.1
2016-May-21 20:34N 39°15' W 076°34'2 1.7
2016-May-21 19:30N 39°16' W 076°36'0 0.0
2016-May-21 18:30N 39°16' W 076°36'0 0.0
2016-May-21 17:33N 39°16' W 076°36'0 0.0
2016-May-21 16:33N 39°16' W 076°36'0 0.0
2016-May-21 15:33N 39°16' W 076°36'0 0.0
2016-May-21 14:30N 39°16' W 076°36'0 0.0
2016-May-21 13:33N 39°16' W 076°36'0 0.0
2016-May-21 12:24N 39°16' W 076°36'0 0.0
2016-May-21 11:33N 39°16' W 076°36'0 0.4
2016-May-21 10:33N 39°16' W 076°36'8 8.1
2016-May-21 09:34N 39°11' W 076°27'1414.3
2016-May-21 08:33N 38°57' W 076°23'1818.4
2016-May-21 07:33N 38°39' W 076°25'1817.6
2016-May-21 06:34N 38°21' W 076°20'1313.2
2016-May-21 05:34N 38°09' W 076°14'1616.0
2016-May-21 04:34N 37°54' W 076°09'1615.6
2016-May-21 03:34N 37°38' W 076°07'3413.6
2016-May-21 01:05N 37°05' W 076°06'815.5
2016-May-21 00:33N 36°58' W 075°60'1211.9
2016-May-20 23:33N 36°51' W 075°48'24913.4
2016-May-20 05:00N 32°48' W 076°54'   120 / 211017.6 23.020.129.3
Track history (hours):
 
Tides and Currents Weather Stations Pressure Air Temp Water Temp Dewpoint Dewpoint Depression Visibility Wind Speed Wind Dir Waves Ship Positions

Grandeur Of The Seas

Operator: Royal Caribbean Cruises Ltd

Last reported at 2016-May-29 06:33 UTC. Time now 2016-May-30 08:45 UTC.
Position N 42°40' W 070°10'.

Type: Passenger vessel. MMSI: 311315000.

Date/timePositionNaut miles runAvg speedWind from/ knotsBaromVisibWave heightAir tempDewpointWater temp
2016-May-29 06:33N 42°40' W 070°10'1414.4
2016-May-29 05:33N 42°27' W 070°18'1312.8
2016-May-29 04:34N 42°19' W 070°32'1414.4
2016-May-29 03:34N 42°23' W 070°50'9 8.7
2016-May-29 02:33N 42°21' W 071°02'0 0.0
2016-May-29 01:33N 42°21' W 071°02'0 0.0
2016-May-29 00:33N 42°21' W 071°02'0 0.0
2016-May-28 23:33N 42°21' W 071°02'0 0.0
2016-May-28 22:33N 42°21' W 071°02'0 0.0
2016-May-28 21:30N 42°21' W 071°02'0 0.0
2016-May-28 20:30N 42°21' W 071°02'0 0.0
2016-May-28 19:33N 42°21' W 071°02'0 0.0
2016-May-28 18:33N 42°21' W 071°02'0 0.0
2016-May-28 17:33N 42°21' W 071°02'0 0.0
2016-May-28 16:33N 42°21' W 071°02'0 0.0
2016-May-28 15:33N 42°21' W 071°02'0 0.0
2016-May-28 14:33N 42°21' W 071°02'0 0.3
2016-May-28 13:34N 42°21' W 071°01'9 8.5
2016-May-28 12:34N 42°24' W 070°50'1313.3
2016-May-28 11:33N 42°22' W 070°33'8012.2
2016-May-28 05:00N 41°24' W 069°18'40917.5 220 / 211019.810.8 12.511.612.4
2016-May-27 05:33N 36°57' W 075°58'3715.0
2016-May-27 03:04N 37°34' W 076°03'1317.9
2016-May-27 02:20N 37°45' W 076°11'1619.8
2016-May-27 01:33N 38°01' W 076°12'5317.7
2016-May-26 22:34N 38°53' W 076°24'1514.7
2016-May-26 21:33N 39°08' W 076°24'1110.8
2016-May-26 20:33N 39°15' W 076°34'2 0.3
2016-May-26 14:10N 39°16' W 076°36'0 0.0
2016-May-26 13:28N 39°16' W 076°36'0 0.0
2016-May-26 12:31N 39°16' W 076°36'0 0.0
2016-May-26 11:28N 39°16' W 076°36'1 1.0
2016-May-26 10:34N 39°15' W 076°35'9 8.5
2016-May-26 09:34N 39°10' W 076°26'1313.0
2016-May-26 08:33N 38°58' W 076°24'1918.6
2016-May-26 07:33N 38°39' W 076°25'1918.6
2016-May-26 06:33N 38°21' W 076°19'1919.0
2016-May-26 05:33N 38°03' W 076°13'4117.8
2016-May-26 03:15N 37°22' W 076°05'1917.6
2016-May-26 02:10N 37°03' W 076°05'1117.2
2016-May-26 01:33N 36°56' W 075°55'54621.4
2016-May-25 00:00N 33°00' W 065°54'67 1.6 220 / 91019.010.8 0.525.025.024.2
2016-May-23 05:00N 33°30' W 067°06'47120.5 200 / 201010.810.8 22.021.725.0
2016-May-22 06:00N 36°48' W 075°48'920.8 310 / 181009.510.8 15.514.719.0
2016-May-22 05:33N 36°55' W 075°56'12017.1
2016-May-21 22:33N 38°52' W 076°24'1515.0
2016-May-21 21:33N 39°07' W 076°24'1111.1
2016-May-21 20:34N 39°15' W 076°34'2 1.7
2016-May-21 19:30N 39°16' W 076°36'0 0.0
2016-May-21 18:30N 39°16' W 076°36'0 0.0
2016-May-21 17:33N 39°16' W 076°36'0 0.0
2016-May-21 16:33N 39°16' W 076°36'0 0.0
2016-May-21 15:33N 39°16' W 076°36'0 0.0
2016-May-21 14:30N 39°16' W 076°36'0 0.0
2016-May-21 13:33N 39°16' W 076°36'0 0.0
2016-May-21 12:24N 39°16' W 076°36'0 0.0
2016-May-21 11:33N 39°16' W 076°36'0 0.4
2016-May-21 10:33N 39°16' W 076°36'8 8.1
2016-May-21 09:34N 39°11' W 076°27'1414.3
2016-May-21 08:33N 38°57' W 076°23'1818.4
2016-May-21 07:33N 38°39' W 076°25'1817.6
2016-May-21 06:34N 38°21' W 076°20'1313.2
2016-May-21 05:34N 38°09' W 076°14'1616.0
2016-May-21 04:34N 37°54' W 076°09'1615.6
2016-May-21 03:34N 37°38' W 076°07'3413.6
2016-May-21 01:05N 37°05' W 076°06'815.5
2016-May-21 00:33N 36°58' W 075°60'1211.9
2016-May-20 23:33N 36°51' W 075°48'24913.4
2016-May-20 05:00N 32°48' W 076°54'   120 / 211017.6 23.020.129.3

Dump ship's entire track history